createdAt,value
2022-07-29T00:01:19.553Z,40.41
2022-07-29T00:03:48.085Z,40.21
2022-07-29T00:06:16.255Z,39.65
2022-07-29T00:08:43.741Z,39.32
2022-07-29T00:11:11.412Z,39.32
2022-07-29T00:13:38.935Z,38.81
2022-07-29T00:16:06.364Z,38.60
2022-07-29T00:18:34.000Z,38.20
2022-07-29T00:21:01.372Z,38.33
2022-07-29T00:23:29.834Z,38.24
2022-07-29T00:25:58.272Z,38.19
2022-07-29T00:28:25.652Z,38.13
2022-07-29T00:30:53.008Z,37.96
2022-07-29T00:33:20.703Z,37.83
2022-07-29T00:35:48.767Z,38.08
2022-07-29T00:38:18.465Z,37.92
2022-07-29T00:40:46.834Z,37.85
2022-07-29T00:43:15.243Z,38.14
2022-07-29T00:45:43.363Z,37.97
2022-07-29T00:48:11.455Z,37.61
2022-07-29T00:50:39.072Z,37.41
2022-07-29T00:53:07.960Z,37.55
2022-07-29T00:55:36.361Z,37.46
2022-07-29T00:58:04.012Z,37.32
2022-07-29T01:00:31.832Z,37.57
2022-07-29T01:02:59.591Z,37.62
2022-07-29T01:05:50.160Z,37.68
2022-07-29T01:08:17.155Z,37.56
2022-07-29T01:10:45.110Z,37.53
2022-07-29T01:13:13.055Z,37.60
2022-07-29T01:15:49.239Z,37.42
2022-07-29T01:18:40.619Z,37.51
2022-07-29T01:21:36.157Z,37.48
2022-07-29T01:24:17.288Z,37.49
2022-07-29T01:26:50.467Z,37.47
2022-07-29T01:29:42.848Z,37.62
2022-07-29T01:32:21.568Z,37.33
2022-07-29T01:35:14.292Z,37.42
2022-07-29T01:37:51.339Z,37.32
2022-07-29T01:40:25.776Z,37.38
2022-07-29T01:42:56.195Z,37.68
2022-07-29T01:45:38.410Z,37.65
2022-07-29T01:48:25.310Z,37.51
2022-07-29T01:51:13.976Z,37.89
2022-07-29T01:54:06.410Z,37.43
2022-07-29T01:56:34.727Z,37.68
2022-07-29T01:59:04.433Z,37.34
2022-07-29T02:01:34.155Z,37.60
2022-07-29T02:04:04.896Z,37.57
2022-07-29T02:06:33.819Z,37.76
2022-07-29T02:09:02.233Z,37.74
2022-07-29T02:11:32.279Z,37.70
2022-07-29T02:14:01.404Z,37.49
2022-07-29T02:16:31.186Z,37.58
2022-07-29T02:18:59.353Z,37.54
2022-07-29T02:21:28.370Z,37.73
2022-07-29T02:23:57.307Z,37.82
2022-07-29T02:26:25.621Z,37.89
2022-07-29T02:28:55.420Z,37.85
2022-07-29T02:31:25.676Z,37.79
2022-07-29T02:33:54.074Z,37.80
2022-07-29T02:36:23.154Z,37.83
2022-07-29T02:38:51.406Z,37.83
2022-07-29T02:41:25.329Z,37.80
2022-07-29T02:43:56.261Z,37.92
2022-07-29T02:46:36.064Z,37.91
2022-07-29T02:49:22.130Z,37.97
2022-07-29T02:51:56.312Z,37.91
2022-07-29T02:54:36.773Z,38.03
2022-07-29T02:57:10.704Z,38.11
2022-07-29T02:59:39.322Z,38.04
2022-07-29T03:02:08.347Z,38.15
2022-07-29T03:04:36.384Z,38.08
2022-07-29T03:07:04.798Z,38.16
2022-07-29T03:09:32.780Z,38.18
2022-07-29T03:12:00.828Z,38.18
2022-07-29T03:14:28.312Z,38.13
2022-07-29T03:16:56.264Z,38.37
2022-07-29T03:19:23.797Z,38.34
2022-07-29T03:21:51.171Z,38.39
2022-07-29T03:24:45.157Z,38.33
2022-07-29T03:27:14.718Z,38.34
2022-07-29T03:29:43.707Z,38.29
2022-07-29T03:32:17.422Z,38.47
2022-07-29T03:34:51.559Z,38.50
2022-07-29T03:37:18.915Z,38.41
2022-07-29T03:39:47.228Z,38.47
2022-07-29T03:42:16.410Z,38.58
2022-07-29T03:44:45.607Z,38.47
2022-07-29T03:47:14.188Z,38.51
2022-07-29T03:49:41.999Z,38.52
2022-07-29T03:52:10.037Z,38.58
2022-07-29T03:54:37.563Z,38.53
2022-07-29T03:57:06.903Z,38.60
2022-07-29T03:59:37.297Z,38.55
2022-07-29T04:02:06.318Z,38.50
2022-07-29T04:04:35.611Z,38.54
2022-07-29T04:07:03.351Z,38.53
2022-07-29T04:09:31.113Z,38.47
2022-07-29T04:12:03.169Z,38.45
2022-07-29T04:14:33.761Z,38.55
2022-07-29T04:17:02.199Z,38.62
2022-07-29T04:19:29.538Z,38.64
2022-07-29T04:21:57.419Z,38.63
2022-07-29T04:24:25.062Z,38.50
2022-07-29T04:26:53.275Z,38.46
2022-07-29T04:29:20.921Z,38.45
2022-07-29T04:31:48.667Z,38.80
2022-07-29T04:34:16.377Z,38.61
2022-07-29T04:36:44.218Z,38.58
2022-07-29T04:39:11.885Z,38.56
2022-07-29T04:41:39.214Z,38.87
2022-07-29T04:44:07.129Z,38.63
2022-07-29T04:46:35.700Z,38.90
2022-07-29T04:49:04.309Z,38.44
2022-07-29T04:51:31.921Z,38.38
2022-07-29T04:53:59.711Z,39.01
2022-07-29T04:56:27.364Z,38.73
2022-07-29T04:58:54.738Z,38.71
2022-07-29T05:01:22.405Z,38.74
2022-07-29T05:03:49.789Z,38.69
2022-07-29T05:06:17.238Z,39.86
2022-07-29T05:08:44.840Z,39.54
2022-07-29T05:11:14.960Z,39.20
2022-07-29T05:13:46.025Z,40.28
2022-07-29T05:16:15.115Z,39.96
2022-07-29T05:18:43.174Z,40.20
2022-07-29T05:21:10.918Z,39.72
2022-07-29T05:23:38.496Z,39.78
2022-07-29T05:26:05.907Z,39.56
2022-07-29T05:28:36.662Z,39.74
2022-07-29T05:31:04.127Z,39.43
2022-07-29T05:33:35.439Z,39.12
2022-07-29T05:36:08.431Z,39.06
2022-07-29T05:38:36.935Z,38.71
2022-07-29T05:41:06.081Z,38.88
2022-07-29T05:43:33.852Z,38.57
2022-07-29T05:46:01.355Z,38.35
2022-07-29T05:48:29.081Z,39.16
2022-07-29T05:50:56.526Z,38.54
2022-07-29T05:53:24.033Z,39.34
2022-07-29T05:55:52.630Z,38.49
2022-07-29T05:58:20.440Z,38.10
2022-07-29T06:00:48.087Z,38.24
2022-07-29T06:03:15.911Z,38.42
2022-07-29T06:05:43.327Z,38.62
2022-07-29T06:08:10.749Z,38.79
2022-07-29T06:10:38.827Z,38.27
2022-07-29T06:13:06.267Z,38.38
2022-07-29T06:15:34.350Z,37.98
2022-07-29T06:18:02.422Z,37.95
2022-07-29T06:20:31.397Z,37.82
2022-07-29T06:22:59.197Z,37.39
2022-07-29T06:25:30.095Z,37.29
2022-07-29T06:27:58.396Z,36.85
2022-07-29T06:30:25.946Z,37.31
2022-07-29T06:32:53.697Z,36.11
2022-07-29T06:35:39.237Z,36.27
2022-07-29T06:38:14.945Z,36.04
2022-07-29T06:41:06.946Z,35.78
2022-07-29T06:43:52.465Z,35.72
2022-07-29T06:46:23.032Z,35.36
2022-07-29T06:48:52.542Z,35.04
2022-07-29T06:51:23.038Z,34.50
2022-07-29T06:53:59.631Z,34.68
2022-07-29T06:56:38.145Z,34.29
2022-07-29T06:59:08.687Z,34.20
2022-07-29T07:01:40.397Z,33.99
2022-07-29T07:04:09.641Z,33.81
2022-07-29T07:06:37.363Z,33.23
2022-07-29T07:09:05.107Z,33.03
2022-07-29T07:11:32.710Z,33.19
2022-07-29T07:14:03.572Z,33.52
2022-07-29T07:16:32.486Z,33.08
2022-07-29T07:19:00.754Z,33.36
2022-07-29T07:21:30.120Z,32.95
2022-07-29T07:23:58.569Z,32.86
2022-07-29T07:26:26.903Z,32.83
2022-07-29T07:28:54.266Z,33.09
2022-07-29T07:31:21.795Z,32.87
2022-07-29T07:33:49.490Z,32.23
2022-07-29T07:36:16.852Z,32.41
2022-07-29T07:38:44.192Z,31.89
2022-07-29T07:41:11.889Z,31.89
2022-07-29T07:43:39.249Z,31.62
2022-07-29T07:46:06.902Z,31.08
2022-07-29T07:48:35.765Z,31.09
2022-07-29T07:51:03.183Z,31.25
2022-07-29T07:53:33.867Z,31.60
2022-07-29T07:56:17.242Z,31.14
2022-07-29T07:58:44.597Z,31.04
2022-07-29T08:01:12.344Z,31.12
2022-07-29T08:03:40.060Z,30.75
2022-07-29T08:06:08.469Z,30.33
2022-07-29T08:08:35.968Z,30.61
2022-07-29T08:11:09.175Z,30.35
2022-07-29T08:13:38.569Z,30.62
2022-07-29T08:16:13.978Z,30.62
2022-07-29T08:18:43.213Z,30.32
2022-07-29T08:21:11.037Z,30.36
2022-07-29T08:23:51.487Z,30.57
2022-07-29T08:26:24.560Z,30.25
2022-07-29T08:28:52.034Z,30.23
2022-07-29T08:31:22.449Z,29.82
2022-07-29T08:33:50.134Z,29.79
2022-07-29T08:36:17.459Z,30.16
2022-07-29T08:38:44.831Z,29.75
2022-07-29T08:41:12.460Z,30.04
2022-07-29T08:43:41.936Z,29.41
2022-07-29T08:46:09.455Z,28.75
2022-07-29T08:48:37.655Z,28.65
2022-07-29T08:51:08.548Z,28.56
2022-07-29T08:53:39.081Z,28.01
2022-07-29T08:56:07.064Z,28.50
2022-07-29T08:58:36.734Z,28.17
2022-07-29T09:01:06.875Z,27.84
2022-07-29T09:03:37.614Z,27.16
2022-07-29T09:06:05.710Z,27.47
2022-07-29T09:08:34.102Z,27.38
2022-07-29T09:11:05.290Z,28.12
2022-07-29T09:13:33.426Z,26.43
2022-07-29T09:16:04.504Z,26.43
2022-07-29T09:18:34.868Z,27.17
2022-07-29T09:21:21.801Z,26.87
2022-07-29T09:24:03.851Z,26.71
2022-07-29T09:26:32.456Z,26.50
2022-07-29T09:29:00.408Z,26.34
2022-07-29T09:31:35.869Z,25.77
2022-07-29T09:34:04.643Z,26.28
2022-07-29T09:36:32.070Z,25.43
2022-07-29T09:39:00.997Z,25.80
2022-07-29T09:41:28.798Z,25.57
2022-07-29T09:44:00.189Z,24.34
2022-07-29T09:46:27.752Z,24.10
2022-07-29T09:49:13.276Z,24.15
2022-07-29T09:51:41.320Z,24.07
2022-07-29T09:54:25.427Z,23.76
2022-07-29T09:56:53.716Z,23.57
2022-07-29T09:59:23.309Z,23.64
2022-07-29T10:01:51.108Z,24.17
2022-07-29T10:04:19.414Z,24.18
2022-07-29T10:07:04.426Z,23.59
2022-07-29T10:09:33.524Z,23.43
2022-07-29T10:12:27.332Z,23.68
2022-07-29T10:14:55.425Z,23.75
2022-07-29T10:17:23.115Z,22.67
2022-07-29T10:19:50.543Z,22.39
2022-07-29T10:22:43.246Z,22.20
2022-07-29T10:25:05.656Z,22.66
2022-07-29T10:27:33.587Z,22.47
2022-07-29T10:30:02.588Z,21.18
2022-07-29T10:32:37.634Z,21.42
2022-07-29T10:35:20.279Z,21.89
2022-07-29T10:37:56.960Z,22.29
2022-07-29T10:40:51.043Z,22.00
2022-07-29T10:43:31.862Z,22.06
2022-07-29T10:46:01.243Z,21.90
2022-07-29T10:48:29.010Z,21.89
2022-07-29T10:51:01.411Z,22.35
2022-07-29T10:53:49.907Z,21.88
2022-07-29T10:56:28.521Z,21.86
2022-07-29T10:59:21.475Z,21.77
2022-07-29T11:01:54.406Z,21.25
2022-07-29T11:04:45.349Z,21.14
2022-07-29T11:07:15.495Z,21.11
2022-07-29T11:09:46.484Z,21.22
2022-07-29T11:12:36.892Z,20.76
2022-07-29T11:15:10.004Z,21.44
2022-07-29T11:17:59.635Z,20.55
2022-07-29T11:20:50.816Z,20.70
2022-07-29T11:23:25.796Z,21.03
2022-07-29T11:26:27.447Z,21.51
2022-07-29T11:29:04.101Z,21.22
2022-07-29T11:31:43.867Z,21.13
2022-07-29T11:34:30.266Z,21.48
2022-07-29T11:37:15.951Z,21.22
2022-07-29T11:39:54.203Z,20.84
2022-07-29T11:42:28.476Z,20.65
2022-07-29T11:45:08.394Z,20.07
2022-07-29T11:47:54.503Z,20.94
2022-07-29T11:50:33.414Z,20.42
2022-07-29T11:53:08.743Z,20.37
2022-07-29T11:55:38.829Z,20.97
2022-07-29T12:01:18.314Z,21.55
2022-07-29T12:03:46.038Z,21.43
2022-07-29T12:06:15.014Z,21.65
2022-07-29T12:07:03.965Z,21.25
2022-07-29T12:08:43.672Z,21.83
2022-07-29T12:11:22.671Z,22.46
2022-07-29T12:13:54.069Z,22.53
2022-07-29T12:16:27.994Z,22.20
2022-07-29T12:19:02.086Z,21.60
2022-07-29T12:21:59.436Z,20.94
2022-07-29T12:24:27.521Z,20.50
2022-07-29T12:27:00.254Z,20.88
2022-07-29T12:29:35.253Z,20.72
2022-07-29T12:32:06.188Z,20.57
2022-07-29T12:34:42.181Z,21.51
2022-07-29T12:37:10.571Z,20.91
2022-07-29T12:39:38.192Z,20.27
2022-07-29T12:42:14.850Z,19.88
2022-07-29T12:44:50.413Z,20.10
2022-07-29T12:47:19.436Z,19.95
2022-07-29T12:49:47.840Z,20.12
2022-07-29T12:52:32.947Z,19.93
2022-07-29T12:55:00.794Z,19.91
2022-07-29T12:57:28.576Z,19.99
2022-07-29T13:00:05.514Z,19.84
2022-07-29T13:02:33.190Z,19.46
2022-07-29T13:05:01.740Z,19.73
2022-07-29T13:07:54.675Z,19.71
2022-07-29T13:10:24.651Z,20.15
2022-07-29T13:13:10.424Z,19.99
2022-07-29T13:15:39.733Z,19.38
2022-07-29T13:18:30.404Z,19.41
2022-07-29T13:20:58.515Z,19.22
2022-07-29T13:23:25.854Z,19.95
2022-07-29T13:25:53.199Z,19.06
2022-07-29T13:28:22.455Z,19.05
2022-07-29T13:30:49.824Z,18.75
2022-07-29T13:33:17.196Z,18.99
2022-07-29T13:35:44.847Z,19.46
2022-07-29T13:38:12.536Z,20.37
2022-07-29T13:40:39.888Z,19.24
2022-07-29T13:43:10.551Z,19.03
2022-07-29T13:45:38.188Z,19.38
2022-07-29T13:48:07.224Z,19.34
2022-07-29T13:50:34.829Z,19.60
2022-07-29T13:53:02.172Z,19.72
2022-07-29T13:55:29.532Z,19.57
2022-07-29T13:57:57.104Z,19.69
2022-07-29T14:00:24.717Z,19.26
2022-07-29T14:02:52.313Z,19.18
2022-07-29T14:05:19.652Z,19.32
2022-07-29T14:07:47.015Z,18.96
2022-07-29T14:10:19.715Z,20.29
2022-07-29T14:12:47.468Z,20.05
2022-07-29T14:15:15.159Z,20.63
2022-07-29T14:17:42.487Z,20.31
2022-07-29T14:20:10.174Z,19.27
2022-07-29T14:22:42.382Z,19.83
2022-07-29T14:25:15.028Z,20.64
2022-07-29T14:27:44.262Z,20.96
2022-07-29T14:30:12.480Z,20.64
2022-07-29T14:32:40.031Z,21.09
2022-07-29T14:35:08.878Z,21.01
2022-07-29T14:37:40.239Z,21.78
2022-07-29T14:40:09.639Z,21.43
2022-07-29T14:42:38.440Z,21.48
2022-07-29T14:45:07.192Z,21.02
2022-07-29T14:47:35.652Z,20.96
2022-07-29T14:50:03.830Z,20.71
2022-07-29T14:52:31.188Z,21.04
2022-07-29T14:54:58.977Z,20.90
2022-07-29T14:57:26.391Z,20.59
2022-07-29T14:59:53.824Z,20.25
2022-07-29T15:02:21.617Z,20.24
2022-07-29T15:04:49.119Z,20.04
2022-07-29T15:07:16.849Z,20.72
2022-07-29T15:09:49.505Z,20.56
2022-07-29T15:12:17.780Z,21.00
2022-07-29T15:14:45.560Z,21.04
2022-07-29T15:17:12.978Z,20.48
2022-07-29T15:19:44.828Z,20.26
2022-07-29T15:22:12.779Z,19.92
2022-07-29T15:24:40.108Z,19.14
2022-07-29T15:27:07.468Z,19.59
2022-07-29T15:29:35.197Z,20.02
2022-07-29T15:32:03.048Z,20.23
2022-07-29T15:34:30.927Z,19.91
2022-07-29T15:36:58.536Z,20.16
2022-07-29T15:39:25.888Z,19.91
2022-07-29T15:41:53.468Z,20.01
2022-07-29T15:44:21.702Z,20.11
2022-07-29T15:47:05.018Z,20.15
2022-07-29T15:49:47.555Z,20.37
2022-07-29T15:52:25.787Z,20.52
2022-07-29T15:54:55.587Z,20.69
2022-07-29T15:57:23.663Z,21.08
2022-07-29T15:59:51.863Z,21.29
2022-07-29T16:02:19.647Z,22.07
2022-07-29T16:04:47.440Z,21.63
2022-07-29T16:07:15.544Z,21.52
2022-07-29T16:09:43.870Z,21.13
2022-07-29T16:12:15.293Z,20.75
2022-07-29T16:14:43.464Z,20.84
2022-07-29T16:17:14.516Z,20.88
2022-07-29T16:19:43.388Z,20.51
2022-07-29T16:22:11.537Z,20.52
2022-07-29T16:24:39.140Z,20.79
2022-07-29T16:27:06.814Z,20.75
2022-07-29T16:29:34.466Z,20.83
2022-07-29T16:32:01.930Z,21.56
2022-07-29T16:34:29.656Z,21.53
2022-07-29T16:36:57.256Z,21.67
2022-07-29T16:39:24.694Z,21.94
2022-07-29T16:41:52.047Z,22.67
2022-07-29T16:44:19.726Z,22.39
2022-07-29T16:46:52.624Z,22.30
2022-07-29T16:49:23.694Z,22.34
2022-07-29T16:51:51.099Z,22.46
2022-07-29T16:54:18.465Z,22.47
2022-07-29T16:56:46.080Z,22.74
2022-07-29T16:59:13.470Z,23.02
2022-07-29T17:01:40.820Z,23.18
2022-07-29T17:04:08.596Z,23.28
2022-07-29T17:06:37.327Z,23.10
2022-07-29T17:09:05.843Z,22.70
2022-07-29T17:11:53.568Z,22.72
2022-07-29T17:14:27.660Z,23.06
2022-07-29T17:17:02.078Z,23.39
2022-07-29T17:19:32.432Z,23.74
2022-07-29T17:22:09.253Z,24.17
2022-07-29T17:24:39.038Z,24.46
2022-07-29T17:27:09.508Z,25.17
2022-07-29T17:29:38.603Z,25.95
2022-07-29T17:32:07.474Z,26.14
2022-07-29T17:34:39.970Z,26.22
2022-07-29T17:37:09.420Z,26.52
2022-07-29T17:39:40.599Z,26.81
2022-07-29T17:42:09.706Z,27.24
2022-07-29T17:44:37.915Z,27.96
2022-07-29T17:47:06.487Z,28.10
2022-07-29T17:49:36.309Z,28.68
2022-07-29T17:52:05.393Z,28.98
2022-07-29T17:54:32.807Z,29.30
2022-07-29T17:57:00.671Z,29.31
2022-07-29T17:59:28.567Z,30.08
2022-07-29T18:01:55.956Z,30.16
2022-07-29T18:04:23.718Z,30.30
2022-07-29T18:06:51.552Z,30.69
2022-07-29T18:09:18.909Z,31.19
2022-07-29T18:11:47.461Z,31.87
2022-07-29T18:14:14.967Z,32.15
2022-07-29T18:16:42.373Z,32.60
2022-07-29T18:19:10.095Z,31.96
2022-07-29T18:21:51.862Z,31.74
2022-07-29T18:24:27.461Z,31.52
2022-07-29T18:26:54.951Z,31.43
2022-07-29T18:29:22.570Z,31.56
2022-07-29T18:31:50.154Z,31.37
2022-07-29T18:34:17.671Z,31.47
2022-07-29T18:36:45.923Z,32.59
2022-07-29T18:39:20.308Z,32.20
2022-07-29T18:41:51.003Z,32.21
2022-07-29T18:44:22.016Z,32.30
2022-07-29T18:46:51.285Z,32.49
2022-07-29T18:49:19.037Z,32.73
2022-07-29T18:51:46.960Z,32.75
2022-07-29T18:54:15.135Z,32.80
2022-07-29T18:56:42.571Z,32.81
2022-07-29T18:59:10.485Z,32.76
2022-07-29T19:01:38.211Z,32.66
2022-07-29T19:04:05.897Z,32.57
2022-07-29T19:06:33.236Z,32.51
2022-07-29T19:09:00.816Z,32.64
2022-07-29T19:11:28.183Z,32.95
2022-07-29T19:13:55.587Z,33.15
2022-07-29T19:16:23.485Z,32.87
2022-07-29T19:18:51.498Z,31.90
2022-07-29T19:21:19.303Z,32.36
2022-07-29T19:24:01.607Z,32.37
2022-07-29T19:26:36.522Z,32.34
2022-07-29T19:29:04.619Z,32.05
2022-07-29T19:31:32.055Z,31.98
2022-07-29T19:33:59.490Z,31.42
2022-07-29T19:36:27.335Z,31.41
2022-07-29T19:38:54.757Z,31.38
2022-07-29T19:41:22.140Z,31.31
2022-07-29T19:43:52.882Z,31.75
2022-07-29T19:46:21.517Z,32.10
2022-07-29T19:48:49.338Z,31.94
2022-07-29T19:51:17.498Z,32.04
2022-07-29T19:53:44.922Z,31.91
2022-07-29T19:56:12.453Z,31.91
2022-07-29T19:58:40.793Z,32.49
2022-07-29T20:01:10.497Z,32.84
2022-07-29T20:03:40.039Z,32.74
2022-07-29T20:06:07.888Z,32.91
2022-07-29T20:08:35.516Z,32.74
2022-07-29T20:11:03.363Z,32.83
2022-07-29T20:13:32.992Z,32.96
2022-07-29T20:16:01.101Z,32.99
2022-07-29T20:18:28.724Z,33.15
2022-07-29T20:20:57.456Z,32.91
2022-07-29T20:23:24.905Z,32.97
2022-07-29T20:25:52.656Z,33.13
2022-07-29T20:28:22.492Z,33.28
2022-07-29T20:30:49.873Z,33.45
2022-07-29T20:33:17.546Z,33.65
2022-07-29T20:35:44.975Z,33.87
2022-07-29T20:38:17.821Z,33.97
2022-07-29T20:40:46.026Z,33.99
2022-07-29T20:43:13.361Z,33.61
2022-07-29T20:45:40.673Z,34.06
2022-07-29T20:48:08.558Z,34.31
2022-07-29T20:50:36.139Z,34.26
2022-07-29T20:53:03.490Z,34.31
2022-07-29T20:55:32.027Z,34.20
2022-07-29T20:57:59.740Z,34.55
2022-07-29T21:00:28.426Z,34.34
2022-07-29T21:02:56.081Z,34.51
2022-07-29T21:05:23.546Z,34.60
2022-07-29T21:07:53.398Z,34.63
2022-07-29T21:10:24.201Z,35.17
2022-07-29T21:12:51.559Z,35.14
2022-07-29T21:15:20.776Z,34.71
2022-07-29T21:17:48.545Z,34.50
2022-07-29T21:20:17.253Z,34.63
2022-07-29T21:22:44.714Z,34.76
2022-07-29T21:25:12.612Z,34.77
2022-07-29T21:27:58.271Z,34.98
2022-07-29T21:30:25.906Z,35.20
2022-07-29T21:32:53.354Z,35.28
2022-07-29T21:36:01.917Z,35.05
2022-07-29T21:38:08.306Z,35.60
2022-07-29T21:40:35.755Z,35.71
2022-07-29T21:43:03.102Z,35.35
2022-07-29T21:45:30.728Z,35.67
2022-07-29T21:47:58.049Z,35.75
2022-07-29T21:50:25.448Z,35.79
2022-07-29T21:52:53.180Z,35.68
2022-07-29T21:55:20.604Z,36.11
2022-07-29T21:57:49.884Z,36.44
2022-07-29T22:00:17.503Z,36.42
2022-07-29T22:02:45.526Z,36.50
2022-07-29T22:05:13.390Z,36.61
2022-07-29T22:07:54.681Z,36.62
2022-07-29T22:10:25.903Z,36.79
2022-07-29T22:12:54.862Z,36.90
2022-07-29T22:15:22.757Z,37.12
2022-07-29T22:17:50.756Z,37.28
2022-07-29T22:20:18.373Z,37.52
2022-07-29T22:22:46.668Z,38.11
2022-07-29T22:25:14.407Z,38.12
2022-07-29T22:27:41.895Z,38.35
2022-07-29T22:30:09.775Z,38.29
2022-07-29T22:32:37.458Z,38.74
2022-07-29T22:35:05.158Z,38.82
2022-07-29T22:37:32.868Z,38.87
2022-07-29T22:40:00.464Z,39.33
2022-07-29T22:42:27.807Z,39.23
2022-07-29T22:44:55.157Z,39.41
2022-07-29T22:47:45.814Z,39.67
2022-07-29T22:50:10.057Z,39.80
2022-07-29T22:52:37.691Z,39.91
2022-07-29T22:55:05.423Z,39.96
2022-07-29T22:57:32.767Z,40.76
2022-07-29T23:00:02.236Z,40.71
2022-07-29T23:02:29.609Z,40.72
2022-07-29T23:04:57.185Z,40.53
2022-07-29T23:07:24.839Z,40.71
2022-07-29T23:09:52.265Z,40.88
2022-07-29T23:12:19.878Z,40.71
2022-07-29T23:14:47.512Z,40.84
2022-07-29T23:17:14.994Z,41.15
2022-07-29T23:19:42.386Z,41.23
2022-07-29T23:22:09.981Z,41.33
2022-07-29T23:24:37.348Z,41.68
2022-07-29T23:27:04.693Z,41.54
2022-07-29T23:29:36.591Z,41.80
2022-07-29T23:32:04.299Z,41.79
2022-07-29T23:34:31.915Z,41.78
2022-07-29T23:36:59.426Z,42.10
2022-07-29T23:39:26.975Z,42.22
2022-07-29T23:41:54.579Z,42.26
2022-07-29T23:44:21.937Z,42.23
2022-07-29T23:46:49.319Z,42.25
2022-07-29T23:49:17.068Z,42.50
2022-07-29T23:51:44.425Z,42.65
2022-07-29T23:54:11.802Z,42.52
2022-07-29T23:56:39.403Z,42.78
2022-07-29T23:59:06.763Z,42.68
